Time;durP1;ratioP1;P1;durP2;ratioP2;P2;SDS_P1;SDS_P2;PMS_P1;PMS_P2;Temp;Humidity;BMP_temperature;BMP_pressure;BME280_temperature;BME280_humidity;BME280_pressure;Samples;Min_cycle;Max_cycle;Signal;HPM_P1;HPM_P2
2022/11/30 00:00:17;;;;;;;71.67;33.57;;;3.40;99.90;;;;;;5074866;28;20261;-76
2022/11/30 00:02:45;;;;;;;69.23;32.60;;;3.40;99.90;;;;;;5091948;28;20241;-79
2022/11/30 00:05:12;;;;;;;72.83;34.90;;;3.40;99.90;;;;;;5076479;28;20537;-78
2022/11/30 00:07:39;;;;;;;77.90;33.57;;;3.40;99.90;;;;;;5074433;28;20215;-78
2022/11/30 00:10:08;;;;;;;74.13;35.73;;;3.40;99.90;;;;;;5074620;28;20265;-77
2022/11/30 00:12:35;;;;;;;73.33;35.33;;;3.30;99.90;;;;;;5083672;28;20274;-76
2022/11/30 00:15:02;;;;;;;73.50;34.63;;;3.30;99.90;;;;;;5079346;28;20196;-78
2022/11/30 00:17:30;;;;;;;72.30;33.47;;;3.30;1.00;;;;;;5074497;28;20596;-76
2022/11/30 00:19:57;;;;;;;70.40;33.60;;;3.30;1.00;;;;;;5074607;28;20238;-78
2022/11/30 00:22:24;;;;;;;79.20;34.73;;;3.30;1.00;;;;;;5083680;28;20196;-78
2022/11/30 00:24:51;;;;;;;73.83;33.53;;;3.30;1.00;;;;;;5074367;28;20191;-76
2022/11/30 00:27:18;;;;;;;81.47;38.20;;;3.30;1.00;;;;;;5073922;28;20649;-77
2022/11/30 00:29:45;;;;;;;73.97;33.90;;;3.30;1.00;;;;;;5088708;28;20195;-78
2022/11/30 00:32:12;;;;;;;75.47;35.47;;;3.20;1.00;;;;;;5088315;28;20196;-77
2022/11/30 00:34:40;;;;;;;82.63;36.40;;;3.20;1.00;;;;;;5074292;28;20230;-78
2022/11/30 00:37:07;;;;;;;75.43;34.03;;;3.20;1.00;;;;;;5078758;28;20195;-77
2022/11/30 00:39:34;;;;;;;75.83;34.80;;;3.20;1.00;;;;;;5083006;28;20212;-79
2022/11/30 00:42:01;;;;;;;73.63;32.47;;;3.20;1.00;;;;;;5074187;28;20204;-77
2022/11/30 00:44:28;;;;;;;79.33;35.73;;;3.20;1.00;;;;;;5074308;28;20227;-78
2022/11/30 00:46:55;;;;;;;72.40;35.30;;;3.10;1.00;;;;;;5074406;28;20199;-76
2022/11/30 00:49:22;;;;;;;77.23;35.90;;;3.10;1.00;;;;;;5073451;28;20255;-77
2022/11/30 00:51:51;;;;;;;72.23;34.33;;;3.10;1.00;;;;;;5075439;28;20599;-79
2022/11/30 00:54:18;;;;;;;75.23;33.87;;;3.10;1.00;;;;;;5073261;28;20605;-77
2022/11/30 00:56:45;;;;;;;77.57;35.90;;;3.10;1.00;;;;;;5073751;28;20261;-78
2022/11/30 00:59:12;;;;;;;78.03;35.87;;;3.10;1.00;;;;;;5073641;28;20253;-77
2022/11/30 01:01:39;;;;;;;69.87;34.20;;;3.10;1.00;;;;;;5081860;28;20207;-78
2022/11/30 01:04:06;;;;;;;79.33;36.17;;;3.10;1.00;;;;;;5076413;28;20249;-79
2022/11/30 01:06:33;;;;;;;69.30;33.60;;;3.10;1.00;;;;;;5073599;28;20237;-77
2022/11/30 01:09:02;;;;;;;69.47;32.53;;;3.10;1.00;;;;;;5074700;28;20200;-77
2022/11/30 01:11:30;;;;;;;73.67;34.07;;;3.10;1.00;;;;;;5085616;28;20196;-76
2022/11/30 01:13:59;;;;;;;75.10;35.20;;;3.10;1.00;;;;;;5073289;28;20199;-78
2022/11/30 01:16:30;;;;;;;75.43;35.43;;;3.10;1.00;;;;;;5073376;28;20279;-77
2022/11/30 01:18:57;;;;;;;77.57;34.90;;;3.00;1.00;;;;;;5073038;28;20187;-77
2022/11/30 01:21:25;;;;;;;82.20;37.63;;;3.00;1.00;;;;;;5073063;28;20219;-78
2022/11/30 01:23:53;;;;;;;72.60;35.87;;;3.10;1.00;;;;;;5073201;28;20200;-77
2022/11/30 01:26:22;;;;;;;74.03;35.37;;;3.10;1.00;;;;;;5091101;28;20195;-77
2022/11/30 01:28:51;;;;;;;85.93;37.17;;;3.10;1.00;;;;;;5089022;28;20233;-79
2022/11/30 01:31:19;;;;;;;79.87;36.40;;;3.10;1.00;;;;;;5080547;28;20249;-78
2022/11/30 01:33:49;;;;;;;81.23;36.43;;;3.10;1.00;;;;;;5073066;28;20196;-79
2022/11/30 01:36:18;;;;;;;78.10;35.10;;;3.10;1.00;;;;;;5072694;28;20199;-78
2022/11/30 01:38:47;;;;;;;72.87;33.83;;;3.10;1.00;;;;;;5086142;28;20597;-78
2022/11/30 01:41:18;;;;;;;81.30;36.60;;;3.10;1.00;;;;;;5082828;28;20264;-80
2022/11/30 01:43:48;;;;;;;76.73;33.93;;;3.10;1.00;;;;;;5075246;28;20646;-77
2022/11/30 01:46:31;;;;;;;69.27;33.97;;;3.20;1.00;;;;;;5082499;28;20256;-78
2022/11/30 01:49:11;;;;;;;77.17;35.23;;;3.20;1.00;;;;;;5074253;28;20633;-77
2022/11/30 01:51:43;;;;;;;73.27;34.10;;;3.20;1.00;;;;;;5072772;28;20260;-78
2022/11/30 01:54:12;;;;;;;79.47;35.33;;;3.20;1.00;;;;;;5072608;28;20196;-77
2022/11/30 01:56:42;;;;;;;73.23;37.13;;;3.30;1.00;;;;;;5077811;28;20272;-78
2022/11/30 01:59:12;;;;;;;75.63;34.77;;;3.20;1.00;;;;;;5092353;28;20187;-77
2022/11/30 02:01:39;;;;;;;73.97;34.73;;;3.30;1.00;;;;;;5091994;28;20558;-76
2022/11/30 02:04:10;;;;;;;75.43;37.00;;;3.20;1.00;;;;;;5079511;28;20199;-79
2022/11/30 02:06:37;;;;;;;72.17;35.93;;;3.20;1.00;;;;;;5083967;28;21012;-79
2022/11/30 02:09:05;;;;;;;74.90;35.67;;;3.20;1.00;;;;;;5073658;28;20727;-79
2022/11/30 02:11:32;;;;;;;77.73;35.37;;;3.20;1.00;;;;;;5073808;28;20202;-77
2022/11/30 02:14:08;;;;;;;76.20;34.87;;;3.20;1.00;;;;;;5075579;28;20588;-78
2022/11/30 02:16:48;;;;;;;79.50;35.33;;;3.20;1.00;;;;;;5082874;28;20191;-78
2022/11/30 02:19:57;;;;;;;78.40;35.53;;;3.20;1.00;;;;;;5072027;28;20662;-77
2022/11/30 02:22:38;;;;;;;74.27;35.57;;;3.20;1.00;;;;;;5074195;28;20196;-77
2022/11/30 02:25:15;;;;;;;75.57;34.53;;;3.20;1.00;;;;;;5089742;28;20256;-80
2022/11/30 02:28:08;;;;;;;72.13;33.87;;;3.20;1.00;;;;;;5074148;28;20183;-78
2022/11/30 02:30:39;;;;;;;78.70;34.27;;;3.20;1.00;;;;;;5072524;28;20241;-78
2022/11/30 02:33:11;;;;;;;82.57;36.23;;;3.20;1.00;;;;;;5086475;28;20191;-77
2022/11/30 02:35:41;;;;;;;77.57;36.30;;;3.20;1.00;;;;;;5072178;28;20199;-77
2022/11/30 02:38:09;;;;;;;77.60;37.27;;;3.20;1.00;;;;;;5071725;28;20600;-77
2022/11/30 02:40:36;;;;;;;73.93;35.83;;;3.20;1.00;;;;;;5072203;28;20215;-79
2022/11/30 02:43:05;;;;;;;78.90;35.77;;;3.10;1.00;;;;;;5082819;28;20727;-80
2022/11/30 02:45:42;;;;;;;77.20;36.10;;;3.00;1.00;;;;;;5072345;28;20192;-77
2022/11/30 02:48:11;;;;;;;79.07;35.53;;;3.00;1.00;;;;;;5085893;28;20188;-79
2022/11/30 02:50:43;;;;;;;78.70;35.20;;;2.90;1.00;;;;;;5071909;28;20227;-78
2022/11/30 02:53:10;;;;;;;77.60;35.00;;;2.90;1.00;;;;;;5076801;28;20241;-77
2022/11/30 02:55:37;;;;;;;79.07;35.20;;;2.90;1.00;;;;;;5072198;28;20192;-79
2022/11/30 02:58:04;;;;;;;75.33;35.90;;;2.80;1.00;;;;;;5072089;28;20253;-77
2022/11/30 03:00:32;;;;;;;78.87;36.70;;;2.80;1.00;;;;;;5074506;28;20835;-78
2022/11/30 03:03:00;;;;;;;80.70;36.50;;;2.80;1.00;;;;;;5078354;28;20204;-78
2022/11/30 03:05:27;;;;;;;79.00;37.03;;;2.80;1.00;;;;;;5076726;28;20190;-77
2022/11/30 03:07:54;;;;;;;71.57;34.07;;;2.80;51.00;;;;;;5080533;28;20645;-79
2022/11/30 03:10:21;;;;;;;75.90;36.27;;;2.80;92.90;;;;;;5071700;28;20190;-78
2022/11/30 03:12:48;;;;;;;80.67;37.17;;;2.80;81.90;;;;;;5071856;28;20202;-77
2022/11/30 03:15:15;;;;;;;77.87;35.37;;;2.80;97.40;;;;;;5081147;28;20225;-78
2022/11/30 03:17:42;;;;;;;81.50;37.27;;;2.80;99.90;;;;;;5086398;28;20260;-77
2022/11/30 03:20:11;;;;;;;78.20;35.93;;;2.90;99.90;;;;;;5081486;28;20245;-77
2022/11/30 03:22:38;;;;;;;82.23;36.17;;;2.90;56.40;;;;;;5086242;28;20192;-78
2022/11/30 03:25:06;;;;;;;76.67;36.47;;;2.90;23.40;;;;;;5075631;28;20203;-76
2022/11/30 03:27:33;;;;;;;79.40;36.73;;;2.90;26.70;;;;;;5092309;28;20195;-77
2022/11/30 03:30:00;;;;;;;81.63;37.10;;;2.90;77.90;;;;;;5075212;28;20653;-77
2022/11/30 03:32:29;;;;;;;78.37;36.27;;;2.90;94.30;;;;;;5075477;28;20222;-78
2022/11/30 03:34:56;;;;;;;74.00;35.00;;;3.00;57.20;;;;;;5075087;28;20215;-78
2022/11/30 03:37:24;;;;;;;79.67;36.90;;;3.00;35.10;;;;;;5075250;28;20587;-78
2022/11/30 03:39:51;;;;;;;85.83;35.27;;;3.00;42.30;;;;;;5075121;28;20192;-77
2022/11/30 03:42:18;;;;;;;79.40;37.03;;;3.00;22.30;;;;;;5083490;28;20216;-78
2022/11/30 03:44:45;;;;;;;78.37;36.37;;;3.10;1.00;;;;;;5075010;28;20213;-78
2022/11/30 03:47:12;;;;;;;77.20;35.90;;;3.10;2.80;;;;;;5074794;28;20199;-79
2022/11/30 03:49:39;;;;;;;74.93;34.30;;;3.10;1.00;;;;;;5074882;28;20626;-78
2022/11/30 03:52:06;;;;;;;75.40;36.27;;;3.10;1.00;;;;;;5075309;28;20191;-77
2022/11/30 03:54:35;;;;;;;78.67;36.33;;;3.20;8.40;;;;;;5074668;28;20711;-77
2022/11/30 03:57:02;;;;;;;78.93;37.43;;;3.20;1.00;;;;;;5074832;28;20598;-78
2022/11/30 03:59:29;;;;;;;71.67;34.97;;;3.30;1.00;;;;;;5074926;28;20556;-77
2022/11/30 04:01:56;;;;;;;84.47;37.43;;;3.30;1.00;;;;;;5090860;28;20268;-77
2022/11/30 04:04:23;;;;;;;76.23;35.03;;;3.40;1.00;;;;;;5092047;28;20608;-79
2022/11/30 04:06:50;;;;;;;71.87;35.07;;;3.40;1.00;;;;;;5088498;28;20206;-77
2022/11/30 04:09:17;;;;;;;75.13;35.77;;;3.40;1.00;;;;;;5083056;28;20199;-77
2022/11/30 04:11:46;;;;;;;84.27;36.53;;;3.40;1.00;;;;;;5088494;28;20195;-77
2022/11/30 04:14:13;;;;;;;77.40;34.87;;;3.40;1.00;;;;;;5087496;28;20195;-80
2022/11/30 04:16:40;;;;;;;73.27;35.77;;;3.30;1.00;;;;;;5074809;28;20207;-77
2022/11/30 04:19:07;;;;;;;82.33;36.23;;;3.30;1.00;;;;;;5074427;28;20633;-77
2022/11/30 04:21:34;;;;;;;78.17;36.07;;;3.30;1.00;;;;;;5074176;28;20215;-78
2022/11/30 04:24:01;;;;;;;80.53;35.83;;;3.20;1.00;;;;;;5082223;28;20195;-78
2022/11/30 04:26:28;;;;;;;70.33;33.83;;;3.20;1.00;;;;;;5086324;28;20250;-77
2022/11/30 04:28:56;;;;;;;79.63;37.20;;;3.20;1.00;;;;;;5077269;28;20707;-77
2022/11/30 04:31:23;;;;;;;78.73;35.47;;;3.20;1.00;;;;;;5079344;28;20597;-77
2022/11/30 04:33:53;;;;;;;76.83;36.00;;;3.20;1.00;;;;;;5087128;28;20199;-77
2022/11/30 04:36:21;;;;;;;73.83;34.30;;;3.10;1.00;;;;;;5086926;28;20299;-79
2022/11/30 04:38:49;;;;;;;76.73;35.63;;;3.10;1.00;;;;;;5074322;28;20195;-77
2022/11/30 04:41:16;;;;;;;81.23;36.10;;;3.00;1.00;;;;;;5073995;28;20215;-77
2022/11/30 04:43:43;;;;;;;78.90;37.33;;;2.90;1.00;;;;;;5075403;28;20196;-78
2022/11/30 04:46:12;;;;;;;78.23;36.77;;;2.90;1.00;;;;;;5075957;28;20199;-77
2022/11/30 04:48:39;;;;;;;79.40;35.43;;;2.90;1.00;;;;;;5082183;28;20202;-79
2022/11/30 04:51:08;;;;;;;76.53;36.23;;;2.80;1.00;;;;;;5076561;28;20240;-78
2022/11/30 04:53:37;;;;;;;76.33;35.43;;;2.90;1.00;;;;;;5073687;28;20196;-78
2022/11/30 04:56:06;;;;;;;79.67;36.40;;;2.90;1.00;;;;;;5074126;28;20204;-76
2022/11/30 04:58:33;;;;;;;80.63;37.20;;;2.90;1.00;;;;;;5079854;28;20454;-79
2022/11/30 05:01:00;;;;;;;84.20;37.47;;;2.90;1.00;;;;;;5078523;28;20219;-78
2022/11/30 05:03:28;;;;;;;75.50;37.67;;;3.00;1.00;;;;;;5072154;28;20199;-78
2022/11/30 05:05:55;;;;;;;83.90;37.53;;;3.10;1.00;;;;;;5082411;28;20611;-77
2022/11/30 05:08:23;;;;;;;84.73;37.47;;;3.10;1.00;;;;;;5078186;28;20347;-77
2022/11/30 05:10:52;;;;;;;84.63;37.47;;;3.20;1.00;;;;;;5073480;28;20192;-79
2022/11/30 05:13:20;;;;;;;83.20;37.47;;;3.20;1.00;;;;;;5073119;28;20220;-78
2022/11/30 05:15:47;;;;;;;80.37;36.33;;;3.30;1.00;;;;;;5073421;28;20249;-77
2022/11/30 05:18:18;;;;;;;88.37;38.53;;;3.30;1.00;;;;;;5085683;28;20195;-78
2022/11/30 05:20:49;;;;;;;91.27;38.20;;;3.30;1.00;;;;;;5088393;28;20195;-77
2022/11/30 05:23:17;;;;;;;84.97;38.83;;;3.30;1.00;;;;;;5073342;28;20645;-77
2022/11/30 05:25:44;;;;;;;86.20;37.83;;;3.30;1.00;;;;;;5073273;28;20191;-78
2022/11/30 05:28:11;;;;;;;89.13;38.67;;;3.30;1.00;;;;;;5080322;28;20584;-76
2022/11/30 05:30:39;;;;;;;89.83;40.13;;;3.40;1.00;;;;;;5076640;28;20250;-77
2022/11/30 05:33:07;;;;;;;82.17;37.40;;;3.40;1.00;;;;;;5072753;28;20257;-78
2022/11/30 05:35:34;;;;;;;83.60;37.43;;;3.40;1.00;;;;;;5072604;28;20653;-77
2022/11/30 05:38:02;;;;;;;86.33;39.63;;;3.40;1.00;;;;;;5073073;28;20218;-78
2022/11/30 05:40:31;;;;;;;86.70;38.10;;;3.50;1.00;;;;;;5072613;28;20203;-77
2022/11/30 05:42:59;;;;;;;89.17;38.13;;;3.40;1.00;;;;;;5072388;28;20204;-79
2022/11/30 05:45:26;;;;;;;86.53;39.70;;;3.40;1.00;;;;;;5084690;28;20202;-77
2022/11/30 05:47:53;;;;;;;82.50;37.60;;;3.50;1.00;;;;;;5074170;28;20200;-76
2022/11/30 05:50:21;;;;;;;90.20;38.90;;;3.50;1.00;;;;;;5087174;28;20226;-77
2022/11/30 05:52:48;;;;;;;82.00;36.87;;;3.50;1.00;;;;;;5092423;28;20187;-77
2022/11/30 05:55:16;;;;;;;90.03;39.23;;;3.50;1.00;;;;;;5092759;28;20191;-77
2022/11/30 05:57:43;;;;;;;86.10;37.70;;;3.50;1.00;;;;;;5090666;28;20199;-78
2022/11/30 06:00:11;;;;;;;82.60;37.60;;;3.50;1.00;;;;;;5083953;28;20591;-77
2022/11/30 06:02:38;;;;;;;86.23;37.37;;;3.50;1.00;;;;;;5091732;28;20210;-78
2022/11/30 06:05:07;;;;;;;89.07;37.13;;;3.50;1.00;;;;;;5091061;28;21971;-77
2022/11/30 06:07:34;;;;;;;82.43;38.37;;;3.60;1.00;;;;;;5084373;28;20245;-79
2022/11/30 06:10:01;;;;;;;88.50;39.23;;;3.50;1.00;;;;;;5081933;28;20192;-77
2022/11/30 06:12:29;;;;;;;81.70;37.70;;;3.50;1.00;;;;;;5089694;28;20664;-76
2022/11/30 06:14:56;;;;;;;91.17;38.30;;;3.50;1.00;;;;;;5085685;28;20204;-77
2022/11/30 06:17:23;;;;;;;75.33;33.83;;;3.50;1.00;;;;;;5071885;28;20192;-77
2022/11/30 06:19:50;;;;;;;83.20;39.87;;;3.50;1.00;;;;;;5071740;28;20192;-76
2022/11/30 06:22:17;;;;;;;81.90;37.63;;;3.50;1.00;;;;;;5072412;28;20623;-76
2022/11/30 06:24:44;;;;;;;86.70;38.83;;;3.50;1.00;;;;;;5071894;28;20196;-75
2022/11/30 06:27:11;;;;;;;84.60;37.07;;;3.40;1.00;;;;;;5071824;28;20196;-77
2022/11/30 06:29:39;;;;;;;85.77;37.70;;;3.40;1.00;;;;;;5071761;28;20196;-76
2022/11/30 06:32:07;;;;;;;86.20;37.53;;;3.50;1.00;;;;;;5071590;28;20535;-78
2022/11/30 06:34:35;;;;;;;83.27;37.43;;;3.50;1.00;;;;;;5071671;28;20249;-78
2022/11/30 06:37:02;;;;;;;88.80;37.10;;;3.50;1.00;;;;;;5075316;28;20625;-77
2022/11/30 06:39:29;;;;;;;89.50;37.03;;;3.50;1.00;;;;;;5081959;28;20191;-77
2022/11/30 06:41:56;;;;;;;81.97;33.73;;;3.50;1.00;;;;;;5071727;28;20222;-78
2022/11/30 06:44:23;;;;;;;89.33;37.27;;;3.50;1.00;;;;;;5071993;28;20613;-77
2022/11/30 06:46:51;;;;;;;79.83;36.13;;;3.40;1.00;;;;;;5081014;28;20649;-76
2022/11/30 06:49:18;;;;;;;88.00;38.33;;;3.50;1.00;;;;;;5076516;28;20289;-78
2022/11/30 06:51:45;;;;;;;84.73;37.70;;;3.50;1.00;;;;;;5072164;28;20547;-77
2022/11/30 06:54:12;;;;;;;88.10;37.43;;;3.50;1.00;;;;;;5076091;28;20250;-78
2022/11/30 06:56:39;;;;;;;88.20;38.10;;;3.50;1.00;;;;;;5075556;28;20257;-78
2022/11/30 06:59:06;;;;;;;87.93;38.33;;;3.50;1.00;;;;;;5075889;28;20199;-77
2022/11/30 07:01:33;;;;;;;84.87;38.33;;;3.50;1.00;;;;;;5075569;28;20215;-77
2022/11/30 07:04:02;;;;;;;88.10;38.17;;;3.50;1.00;;;;;;5075554;28;20188;-76
2022/11/30 07:06:29;;;;;;;85.30;38.10;;;3.50;1.00;;;;;;5089298;28;20194;-77
2022/11/30 07:08:56;;;;;;;88.43;36.90;;;3.60;1.00;;;;;;5090074;28;20529;-78
2022/11/30 07:11:23;;;;;;;81.20;36.07;;;3.60;1.00;;;;;;5075716;28;20195;-78
2022/11/30 07:13:50;;;;;;;82.17;35.73;;;3.60;1.00;;;;;;5075701;28;20601;-76
2022/11/30 07:16:17;;;;;;;85.50;37.67;;;3.60;1.00;;;;;;5075739;28;20199;-77
2022/11/30 07:18:44;;;;;;;79.80;35.70;;;3.60;1.00;;;;;;5075080;28;20253;-77
2022/11/30 07:21:12;;;;;;;85.97;37.37;;;3.60;1.00;;;;;;5084013;28;20722;-77
2022/11/30 07:26:24;;;;;;;83.07;36.30;;;3.70;1.00;;;;;;5075320;28;20796;-76
2022/11/30 07:28:56;;;;;;;80.23;35.37;;;3.70;1.00;;;;;;5075454;28;20188;-77
2022/11/30 07:31:25;;;;;;;82.63;36.33;;;3.70;1.00;;;;;;5075048;28;20188;-76
2022/11/30 07:33:52;;;;;;;76.27;35.17;;;3.70;1.00;;;;;;5075236;28;20196;-76
2022/11/30 07:36:22;;;;;;;80.43;35.30;;;3.70;1.00;;;;;;5074969;28;20203;-78
2022/11/30 07:38:50;;;;;;;74.13;34.33;;;3.70;1.00;;;;;;5075014;28;20658;-76
2022/11/30 07:41:17;;;;;;;79.13;34.27;;;3.70;99.90;;;;;;5074819;28;20676;-76
2022/11/30 07:43:44;;;;;;;81.30;34.77;;;3.70;99.90;;;;;;5086710;28;20987;-76
2022/11/30 07:46:13;;;;;;;75.53;34.60;;;3.70;99.90;;;;;;5080851;28;20581;-77
2022/11/30 07:48:41;;;;;;;78.67;35.57;;;3.70;1.00;;;;;;5074585;28;20766;-77
2022/11/30 07:51:12;;;;;;;72.37;32.07;;;3.70;1.00;;;;;;5074996;28;20231;-77
2022/11/30 07:53:41;;;;;;;78.90;35.00;;;3.70;99.90;;;;;;5074763;28;20284;-78
2022/11/30 07:56:11;;;;;;;74.83;34.33;;;3.70;99.90;;;;;;5074838;28;20258;-77
2022/11/30 07:58:39;;;;;;;76.27;35.20;;;3.70;99.90;;;;;;5074699;28;20196;-78
2022/11/30 08:01:08;;;;;;;78.50;34.70;;;3.70;99.90;;;;;;5074682;28;20269;-76
2022/11/30 08:03:35;;;;;;;73.07;34.07;;;3.70;99.90;;;;;;5073370;28;20218;-77
2022/11/30 08:06:04;;;;;;;71.70;34.13;;;3.70;99.90;;;;;;5084107;28;20191;-76
2022/11/30 08:08:32;;;;;;;74.77;33.87;;;3.70;99.90;;;;;;5078310;28;20600;-79
2022/11/30 08:11:01;;;;;;;80.73;35.37;;;3.70;99.90;;;;;;5074164;28;20235;-77
2022/11/30 08:13:29;;;;;;;74.93;33.77;;;3.80;99.90;;;;;;5074371;28;20595;-78
2022/11/30 08:15:56;;;;;;;79.57;34.97;;;3.80;99.90;;;;;;5081730;28;20244;-78
2022/11/30 08:18:24;;;;;;;74.40;34.37;;;3.80;99.90;;;;;;5080976;28;20555;-76
2022/11/30 08:20:57;;;;;;;75.50;33.57;;;3.80;99.90;;;;;;5074000;28;20196;-78
2022/11/30 08:23:25;;;;;;;76.10;33.43;;;3.80;99.90;;;;;;5074682;28;20207;-78
2022/11/30 08:25:52;;;;;;;83.90;35.33;;;3.90;99.90;;;;;;5073951;28;20199;-77
2022/11/30 08:28:20;;;;;;;78.67;35.03;;;3.80;99.90;;;;;;5074228;28;20540;-77
2022/11/30 08:30:47;;;;;;;78.37;34.03;;;3.80;99.90;;;;;;5074064;28;20188;-78
2022/11/30 08:33:14;;;;;;;74.87;34.37;;;3.80;99.90;;;;;;5074150;28;20200;-78
2022/11/30 08:35:41;;;;;;;88.10;36.73;;;3.90;99.90;;;;;;5073625;28;20199;-77
2022/11/30 08:38:08;;;;;;;79.43;35.63;;;3.90;99.90;;;;;;5073979;28;20188;-78
2022/11/30 08:40:35;;;;;;;79.57;33.83;;;3.90;98.90;;;;;;5087801;28;20244;-78
2022/11/30 08:43:02;;;;;;;78.67;34.03;;;3.90;91.10;;;;;;5073845;28;20215;-79
2022/11/30 08:45:31;;;;;;;76.43;34.77;;;4.00;99.90;;;;;;5073654;28;20253;-78
2022/11/30 08:47:58;;;;;;;78.70;35.77;;;4.00;99.90;;;;;;5073804;28;20192;-77
2022/11/30 08:50:25;;;;;;;86.80;35.47;;;4.10;85.40;;;;;;5073519;28;20681;-78
2022/11/30 08:52:55;;;;;;;87.90;36.43;;;4.10;16.90;;;;;;5073573;28;20275;-78
2022/11/30 08:55:22;;;;;;;84.27;36.93;;;4.10;21.50;;;;;;5073661;28;20586;-78
2022/11/30 08:57:49;;;;;;;91.00;37.67;;;4.10;18.20;;;;;;5072978;28;20203;-76
2022/11/30 09:00:18;;;;;;;86.87;36.63;;;4.10;1.00;;;;;;5073512;28;20192;-78
2022/11/30 09:02:46;;;;;;;88.50;36.40;;;4.10;1.00;;;;;;5087568;28;20215;-77
2022/11/30 09:05:13;;;;;;;87.90;38.03;;;4.00;1.00;;;;;;5076450;28;20191;-79
2022/11/30 09:07:40;;;;;;;84.77;37.07;;;4.10;1.00;;;;;;5084334;28;20234;-77
2022/11/30 09:10:09;;;;;;;89.27;37.90;;;4.10;1.00;;;;;;5073367;28;20201;-78
2022/11/30 09:12:36;;;;;;;93.77;38.20;;;4.00;1.00;;;;;;5073358;28;20218;-78
2022/11/30 09:15:04;;;;;;;95.03;40.17;;;4.00;1.00;;;;;;5087141;28;20668;-76
2022/11/30 09:17:32;;;;;;;94.87;38.33;;;4.00;1.00;;;;;;5087271;28;20196;-76
2022/11/30 09:20:00;;;;;;;91.53;38.93;;;4.00;1.00;;;;;;5073169;28;20657;-77
2022/11/30 09:22:28;;;;;;;96.83;39.30;;;4.10;1.00;;;;;;5072866;28;20215;-77
2022/11/30 09:24:55;;;;;;;92.40;37.53;;;4.20;1.00;;;;;;5073291;28;20203;-76
2022/11/30 09:27:22;;;;;;;97.00;39.33;;;4.30;1.00;;;;;;5072845;28;20207;-78
2022/11/30 09:29:49;;;;;;;98.40;38.73;;;4.30;1.00;;;;;;5073037;28;20742;-78
2022/11/30 09:32:16;;;;;;;87.17;37.43;;;4.40;1.00;;;;;;5072867;28;20207;-79
2022/11/30 09:34:43;;;;;;;93.50;37.93;;;4.50;1.00;;;;;;5072977;28;20199;-76
2022/11/30 09:37:12;;;;;;;95.13;38.93;;;4.50;1.00;;;;;;5072324;28;20223;-77
2022/11/30 09:39:39;;;;;;;97.67;37.93;;;4.50;1.00;;;;;;5072913;28;20196;-77
2022/11/30 09:42:32;;;;;;;106.70;42.53;;;4.50;1.00;;;;;;5072561;28;20563;-78
2022/11/30 09:45:03;;;;;;;120.60;49.97;;;4.50;1.00;;;;;;5072960;28;20184;-77
2022/11/30 09:48:02;;;;;;;96.03;39.87;;;4.50;1.00;;;;;;5072852;28;20279;-78
2022/11/30 09:50:33;;;;;;;95.97;38.90;;;4.50;1.00;;;;;;5072434;28;20228;-76
2022/11/30 09:53:07;;;;;;;94.17;39.07;;;4.50;1.00;;;;;;5072735;28;20192;-77
2022/11/30 09:55:38;;;;;;;93.27;38.03;;;4.50;1.00;;;;;;5072642;28;20650;-77
2022/11/30 09:58:07;;;;;;;90.93;37.33;;;4.50;1.00;;;;;;5072004;28;20231;-78
2022/11/30 10:00:35;;;;;;;96.10;39.33;;;4.50;1.00;;;;;;5072420;28;20577;-76
2022/11/30 10:03:05;;;;;;;92.47;37.53;;;4.40;1.00;;;;;;5072360;28;20261;-77
2022/11/30 10:05:47;;;;;;;97.43;39.67;;;4.50;1.00;;;;;;5078209;28;20203;-78
2022/11/30 10:08:29;;;;;;;95.90;37.97;;;4.40;1.00;;;;;;5078654;28;20218;-78
2022/11/30 10:11:11;;;;;;;86.73;37.73;;;4.40;1.00;;;;;;5072292;28;20711;-77
2022/11/30 10:13:55;;;;;;;88.80;36.83;;;4.50;1.00;;;;;;5086389;28;20199;-78
2022/11/30 10:16:31;;;;;;;95.47;38.37;;;4.50;1.00;;;;;;5071948;28;20198;-77
2022/11/30 10:19:05;;;;;;;88.37;36.77;;;4.50;1.00;;;;;;5072081;28;20270;-78
2022/11/30 10:21:46;;;;;;;82.17;36.00;;;4.60;1.00;;;;;;5083887;28;20369;-78
2022/11/30 10:24:31;;;;;;;87.57;37.30;;;4.50;1.00;;;;;;5072462;28;20209;-76
2022/11/30 10:27:01;;;;;;;83.53;36.63;;;4.40;1.00;;;;;;5070957;28;20195;-77
2022/11/30 10:29:34;;;;;;;88.37;36.30;;;4.50;1.00;;;;;;5071830;28;20282;-78
2022/11/30 10:32:13;;;;;;;86.50;36.37;;;4.40;99.90;;;;;;5072333;28;20219;-78
2022/11/30 10:34:43;;;;;;;83.80;36.23;;;4.40;99.90;;;;;;5072146;28;20188;-78
2022/11/30 10:37:15;;;;;;;89.07;36.10;;;4.30;99.90;;;;;;5071663;28;20675;-78
2022/11/30 10:39:51;;;;;;;86.50;35.57;;;4.30;99.90;;;;;;5071589;28;20184;-77
2022/11/30 10:42:25;;;;;;;84.53;36.07;;;4.20;99.90;;;;;;5071768;28;20183;-76
2022/11/30 10:45:00;;;;;;;90.17;35.97;;;4.20;99.90;;;;;;5071988;28;20184;-78
2022/11/30 10:47:32;;;;;;;78.90;34.17;;;4.00;99.90;;;;;;5071783;28;20241;-77
2022/11/30 10:50:00;;;;;;;87.40;36.80;;;4.00;99.90;;;;;;5071540;28;20273;-78
2022/11/30 10:52:31;;;;;;;87.10;36.67;;;4.00;1.00;;;;;;5071525;28;20654;-76
2022/11/30 10:55:01;;;;;;;87.43;37.03;;;3.90;1.00;;;;;;5071514;28;20196;-77
2022/11/30 10:57:31;;;;;;;93.17;37.77;;;4.00;1.00;;;;;;5071839;28;20260;-76
2022/11/30 11:00:00;;;;;;;88.83;36.07;;;3.90;1.00;;;;;;5091474;28;20295;-77
2022/11/30 11:02:38;;;;;;;84.80;35.83;;;3.90;1.00;;;;;;5079606;28;20238;-78
2022/11/30 11:05:12;;;;;;;83.10;35.57;;;3.90;1.00;;;;;;5073584;28;20192;-78
2022/11/30 11:07:48;;;;;;;84.33;36.53;;;3.90;1.00;;;;;;5082941;28;20187;-78
2022/11/30 11:10:18;;;;;;;84.00;35.67;;;3.90;1.00;;;;;;5071603;28;20191;-78
2022/11/30 11:12:52;;;;;;;81.33;34.70;;;3.90;99.90;;;;;;5071891;28;20192;-76
2022/11/30 11:15:24;;;;;;;82.60;35.67;;;3.90;1.00;;;;;;5086214;28;20279;-76
2022/11/30 11:17:52;;;;;;;96.83;40.37;;;3.90;1.00;;;;;;5080508;28;20184;-76
2022/11/30 11:20:33;;;;;;;88.50;35.27;;;3.80;1.00;;;;;;5071191;28;20244;-76
2022/11/30 11:23:01;;;;;;;83.70;33.97;;;3.80;1.00;;;;;;5071525;28;20200;-78
2022/11/30 11:25:33;;;;;;;90.90;35.73;;;3.80;99.90;;;;;;5071019;28;20241;-77
2022/11/30 11:28:08;;;;;;;87.23;35.50;;;3.80;1.00;;;;;;5076047;28;20187;-77
2022/11/30 11:30:37;;;;;;;79.87;34.77;;;3.80;1.00;;;;;;5091429;28;20191;-77
2022/11/30 11:33:19;;;;;;;89.47;36.33;;;3.80;1.00;;;;;;5071404;28;20272;-77
2022/11/30 11:35:48;;;;;;;91.17;36.73;;;3.70;99.90;;;;;;5085239;28;20221;-75
2022/11/30 11:38:24;;;;;;;87.73;34.63;;;3.70;1.00;;;;;;5072193;28;20294;-77
2022/11/30 11:40:59;;;;;;;84.93;34.60;;;3.60;1.00;;;;;;5074910;28;20192;-77
2022/11/30 11:43:28;;;;;;;88.37;35.90;;;3.60;1.00;;;;;;5074710;28;20294;-78
2022/11/30 11:45:59;;;;;;;84.87;35.17;;;3.60;1.00;;;;;;5074877;28;20261;-77
2022/11/30 11:48:36;;;;;;;89.77;35.23;;;3.60;1.00;;;;;;5075219;28;20648;-77
2022/11/30 11:51:05;;;;;;;90.77;34.77;;;3.50;1.00;;;;;;5074362;28;20228;-79
2022/11/30 11:53:52;;;;;;;88.00;36.47;;;3.50;1.00;;;;;;5074658;28;20650;-80
2022/11/30 11:56:26;;;;;;;82.97;33.37;;;3.50;1.00;;;;;;5089028;28;20245;-78
2022/11/30 11:58:58;;;;;;;88.30;34.20;;;3.50;1.00;;;;;;5074541;28;20184;-78
2022/11/30 12:01:40;;;;;;;83.93;33.40;;;3.50;1.00;;;;;;5074329;28;20223;-77
2022/11/30 12:04:36;;;;;;;80.57;33.37;;;3.50;1.00;;;;;;5085077;28;20210;-79
2022/11/30 12:07:10;;;;;;;89.07;35.20;;;3.40;1.00;;;;;;5090523;28;20673;-79
2022/11/30 12:09:46;;;;;;;85.60;32.17;;;3.30;1.00;;;;;;5076350;28;20279;-81
2022/11/30 12:12:14;;;;;;;78.00;31.83;;;3.30;1.00;;;;;;5094818;28;20218;-76
2022/11/30 12:14:41;;;;;;;77.80;31.27;;;3.20;1.00;;;;;;5086945;28;20198;-76
2022/11/30 12:17:26;;;;;;;83.37;30.47;;;3.20;1.00;;;;;;5089619;28;20192;-75
2022/11/30 12:20:02;;;;;;;70.53;30.07;;;3.10;1.00;;;;;;5092169;28;20196;-76
2022/11/30 12:22:51;;;;;;;78.33;30.73;;;3.00;1.00;;;;;;5079458;28;20711;-78
2022/11/30 12:25:25;;;;;;;74.60;30.87;;;3.00;1.00;;;;;;5079433;28;20194;-77
2022/11/30 12:28:06;;;;;;;78.63;30.47;;;2.90;1.00;;;;;;5074042;28;20719;-78
2022/11/30 12:30:45;;;;;;;81.00;31.10;;;2.90;1.00;;;;;;5077737;28;20197;-76
2022/11/30 12:33:17;;;;;;;74.07;28.93;;;2.80;1.00;;;;;;5101702;28;20782;-77
2022/11/30 12:35:58;;;;;;;69.07;29.63;;;2.80;1.00;;;;;;5092308;28;20610;-77
2022/11/30 12:38:39;;;;;;;78.73;30.43;;;2.80;1.00;;;;;;5074188;28;20556;-76
2022/11/30 12:41:25;;;;;;;77.33;29.53;;;2.70;1.00;;;;;;5075036;28;20292;-80
2022/11/30 12:44:03;;;;;;;69.73;28.13;;;2.60;1.00;;;;;;5090895;28;20286;-77
2022/11/30 12:46:35;;;;;;;75.93;29.37;;;2.60;1.00;;;;;;5077959;28;20192;-78
2022/11/30 12:49:22;;;;;;;87.00;31.73;;;2.60;1.00;;;;;;5091920;28;20281;-78
2022/11/30 12:51:58;;;;;;;80.70;30.77;;;2.60;1.00;;;;;;5085806;28;20197;-79
2022/11/30 12:54:33;;;;;;;76.17;29.50;;;2.60;1.00;;;;;;5086788;28;20249;-78
2022/11/30 12:57:10;;;;;;;80.17;29.90;;;2.60;1.00;;;;;;5073621;28;20530;-79
2022/11/30 12:59:47;;;;;;;72.60;28.03;;;2.60;1.00;;;;;;5073694;28;20261;-78
2022/11/30 13:03:00;;;;;;;61.77;24.53;;;2.60;1.00;;;;;;5073283;28;20239;-79